KGPZ

Grand Rapids / Itasca Co-Gordon Newstrom Field Airport

Grand Rapids, Minnesota, USA
METAR KGPZ 200056Z AUTO 28009KT 10SM CLR 04/M02 A2951 RMK AO2 SLP010 T00391017 TSNO
Observed Flight Rules
Jan-20 @ 00:56 UTC (28 minutes ago) Visual Flight Rules
Wind Visibility Clouds
280° at 9 knots 10 miles
  • Clear skies
Temperatures Readings
Current 4°C / 39°F
Dewpoint -2°C / 28°F
Humidity 65%
Altimeter 29.51" Hg
Pressure 1001 hPa
Elevation 413
METAR KGPZ 200056Z AUTO 28009KT 10SM CLR 04/M02 A2951 RMK AO2 SLP010 T00391017 TSNO
Observed Flight Rules
Jan-20 @ 00:56 UTC
(28 minutes ago)
VFR
Wind Visibility
280° at 9 knots 10 miles
Clouds
  • Clear skies
Temperature Dewpoint
4°C / 39°F -2°C / 28°F
Humidity Altimeter Pressure
65% 29.51" Hg 1001 hPa